createdAt,value
2023-05-15T00:00:39.636Z,97777.00
2023-05-15T00:03:13.903Z,97776.00
2023-05-15T00:05:49.391Z,97781.00
2023-05-15T00:08:23.682Z,97782.00
2023-05-15T00:11:01.523Z,97786.00
2023-05-15T00:13:36.269Z,97780.00
2023-05-15T00:16:10.739Z,97787.00
2023-05-15T00:18:44.928Z,97787.00
2023-05-15T00:21:20.759Z,97783.00
2023-05-15T00:23:54.994Z,97787.00
2023-05-15T00:26:29.204Z,97781.00
2023-05-15T00:29:03.365Z,97779.00
2023-05-15T00:31:37.655Z,97775.00
2023-05-15T00:34:11.802Z,97776.00
2023-05-15T00:36:47.502Z,97776.00
2023-05-15T00:39:21.575Z,97760.00
2023-05-15T00:41:57.293Z,97765.00
2023-05-15T00:44:33.259Z,97761.00
2023-05-15T00:47:08.846Z,97758.00
2023-05-15T00:49:44.447Z,97749.00
2023-05-15T00:52:21.474Z,97747.00
2023-05-15T00:54:55.616Z,97754.00
2023-05-15T00:57:32.346Z,97750.00
2023-05-15T01:00:10.521Z,97753.00
2023-05-15T01:02:45.226Z,97746.00
2023-05-15T01:05:19.606Z,97751.00
2023-05-15T01:08:09.842Z,97753.00
2023-05-15T01:10:45.380Z,97752.00
2023-05-15T01:13:22.025Z,97744.00
2023-05-15T01:15:56.934Z,97742.00
2023-05-15T01:18:33.135Z,97745.00
2023-05-15T01:21:35.448Z,97748.00
2023-05-15T01:24:42.601Z,97756.00
2023-05-15T01:27:31.570Z,97751.00
2023-05-15T01:30:16.061Z,97748.00
2023-05-15T01:32:57.738Z,97736.00
2023-05-15T01:35:38.029Z,97732.00
2023-05-15T01:38:20.961Z,97730.00
2023-05-15T01:41:04.110Z,97740.00
2023-05-15T01:43:43.800Z,97743.00
2023-05-15T01:46:23.353Z,97742.00
2023-05-15T01:48:59.336Z,97754.00
2023-05-15T01:51:34.522Z,97754.00
2023-05-15T01:54:09.650Z,97762.00
2023-05-15T01:56:45.271Z,97765.00
2023-05-15T01:59:22.371Z,97769.00
2023-05-15T02:01:58.248Z,97768.00
2023-05-15T02:04:34.067Z,97773.00
2023-05-15T02:07:08.599Z,97768.00
2023-05-15T02:09:43.760Z,97761.00
2023-05-15T02:12:18.369Z,97754.00
2023-05-15T02:14:54.250Z,97750.00
2023-05-15T02:17:29.487Z,97755.00
2023-05-15T02:20:04.934Z,97762.00
2023-05-15T02:22:39.163Z,97753.00
2023-05-15T02:25:13.248Z,97749.00
2023-05-15T02:27:54.477Z,97749.00
2023-05-15T02:30:39.967Z,97760.00
2023-05-15T02:33:27.368Z,97755.00
2023-05-15T02:36:06.782Z,97758.00
2023-05-15T02:38:48.938Z,97753.00
2023-05-15T02:41:24.280Z,97752.00
2023-05-15T02:44:00.249Z,97761.00
2023-05-15T02:46:37.327Z,97750.00
2023-05-15T02:49:12.672Z,97752.00
2023-05-15T02:51:46.892Z,97750.00
2023-05-15T02:54:21.652Z,97752.00
2023-05-15T02:56:55.780Z,97746.00
2023-05-15T02:59:30.072Z,97745.00
2023-05-15T03:02:06.049Z,97747.00
2023-05-15T03:04:40.237Z,97747.00
2023-05-15T03:07:15.257Z,97745.00
2023-05-15T03:09:49.650Z,97757.00
2023-05-15T03:12:23.755Z,97758.00
2023-05-15T03:14:58.066Z,97745.00
2023-05-15T03:17:33.522Z,97747.00
2023-05-15T03:20:09.823Z,97747.00
2023-05-15T03:22:44.078Z,97752.00
2023-05-15T03:25:18.425Z,97750.00
2023-05-15T03:27:52.603Z,97752.00
2023-05-15T03:30:26.707Z,97751.00
2023-05-15T03:33:03.880Z,97740.00
2023-05-15T03:35:38.122Z,97738.00
2023-05-15T03:38:12.286Z,97747.00
2023-05-15T03:40:46.748Z,97743.00
2023-05-15T03:43:21.616Z,97750.00
2023-05-15T03:45:55.804Z,97747.00
2023-05-15T03:48:31.225Z,97754.00
2023-05-15T03:51:05.629Z,97754.00
2023-05-15T03:53:40.125Z,97760.00
2023-05-15T03:56:14.300Z,97757.00
2023-05-15T03:58:48.348Z,97759.00
2023-05-15T04:01:22.452Z,97754.00
2023-05-15T04:03:57.970Z,97749.00
2023-05-15T04:06:32.081Z,97750.00
2023-05-15T04:09:06.242Z,97742.00
2023-05-15T04:11:40.286Z,97750.00
2023-05-15T04:14:14.763Z,97753.00
2023-05-15T04:16:48.871Z,97744.00
2023-05-15T04:19:24.393Z,97747.00
2023-05-15T04:21:58.593Z,97750.00
2023-05-15T04:24:32.656Z,97749.00
2023-05-15T04:27:07.206Z,97752.00
2023-05-15T04:29:41.361Z,97756.00
2023-05-15T04:32:15.538Z,97762.00
2023-05-15T04:34:51.123Z,97765.00
2023-05-15T04:37:25.462Z,97767.00
2023-05-15T04:39:59.597Z,97768.00
2023-05-15T04:42:33.746Z,97768.00
2023-05-15T04:45:10.277Z,97766.00
2023-05-15T04:47:44.525Z,97773.00
2023-05-15T04:50:20.088Z,97777.00
2023-05-15T04:52:54.256Z,97776.00
2023-05-15T04:55:28.393Z,97774.00
2023-05-15T04:58:02.472Z,97777.00
2023-05-15T05:00:36.605Z,97780.00
2023-05-15T05:03:10.860Z,97784.00
2023-05-15T05:05:46.484Z,97787.00
2023-05-15T05:08:20.572Z,97789.00
2023-05-15T05:10:58.146Z,97789.00
2023-05-15T05:13:32.290Z,97791.00
2023-05-15T05:16:07.710Z,97797.00
2023-05-15T05:18:41.939Z,97797.00
2023-05-15T05:21:17.889Z,97796.00
2023-05-15T05:23:52.012Z,97800.00
2023-05-15T05:26:27.246Z,97796.00
2023-05-15T05:29:01.398Z,97800.00
2023-05-15T05:31:35.457Z,97799.00
2023-05-15T05:34:09.886Z,97792.00
2023-05-15T05:36:45.313Z,97800.00
2023-05-15T05:39:20.090Z,97794.00
2023-05-15T05:41:54.269Z,97797.00
2023-05-15T05:44:28.370Z,97804.00
2023-05-15T05:47:02.611Z,97800.00
2023-05-15T05:49:36.707Z,97796.00
2023-05-15T05:52:12.558Z,97790.00
2023-05-15T05:54:48.166Z,97799.00
2023-05-15T05:57:22.364Z,97794.00
2023-05-15T05:59:56.469Z,97790.00
2023-05-15T06:02:31.259Z,97791.00
2023-05-15T06:05:07.428Z,97797.00
2023-05-15T06:07:43.215Z,97796.00
2023-05-15T06:10:17.448Z,97800.00
2023-05-15T06:12:51.494Z,97801.00
2023-05-15T06:15:26.306Z,97798.00
2023-05-15T06:18:00.607Z,97809.00
2023-05-15T06:20:35.372Z,97809.00
2023-05-15T06:23:10.951Z,97809.00
2023-05-15T06:25:45.034Z,97806.00
2023-05-15T06:28:19.192Z,97810.00
2023-05-15T06:30:54.107Z,97806.00
2023-05-15T06:33:28.183Z,97801.00
2023-05-15T06:36:02.744Z,97808.00
2023-05-15T06:38:38.174Z,97808.00
2023-05-15T06:41:12.398Z,97808.00
2023-05-15T06:43:46.551Z,97815.00
2023-05-15T06:46:21.132Z,97810.00
2023-05-15T06:48:55.259Z,97810.00
2023-05-15T06:51:29.467Z,97811.00
2023-05-15T06:54:05.258Z,97808.00
2023-05-15T06:56:39.406Z,97813.00
2023-05-15T06:59:13.682Z,97816.00
2023-05-15T07:01:47.938Z,97813.00
2023-05-15T07:04:22.079Z,97813.00
2023-05-15T07:06:56.158Z,97818.00
2023-05-15T07:09:32.017Z,97809.00
2023-05-15T07:12:06.918Z,97816.00
2023-05-15T07:14:41.154Z,97816.00
2023-05-15T07:17:15.309Z,97824.00
2023-05-15T07:19:49.397Z,97816.00
2023-05-15T07:22:23.484Z,97814.00
2023-05-15T07:24:58.934Z,97815.00
2023-05-15T07:27:33.044Z,97812.00
2023-05-15T07:30:09.005Z,97818.00
2023-05-15T07:32:43.265Z,97820.00
2023-05-15T07:35:18.460Z,97818.00
2023-05-15T07:37:52.597Z,97815.00
2023-05-15T07:40:28.136Z,97810.00
2023-05-15T07:43:02.256Z,97811.00
2023-05-15T07:45:36.472Z,97815.00
2023-05-15T07:48:19.003Z,97817.00
2023-05-15T07:50:53.839Z,97818.00
2023-05-15T07:53:27.993Z,97818.00
2023-05-15T07:56:03.606Z,97815.00
2023-05-15T07:58:38.379Z,97811.00
2023-05-15T08:01:12.631Z,97813.00
2023-05-15T08:03:46.753Z,97811.00
2023-05-15T08:06:20.854Z,97805.00
2023-05-15T08:08:55.082Z,97805.00
2023-05-15T08:11:30.619Z,97800.00
2023-05-15T08:14:04.768Z,97798.00
2023-05-15T08:16:38.907Z,97802.00
2023-05-15T08:19:13.193Z,97800.00
2023-05-15T08:21:47.301Z,97803.00
2023-05-15T08:24:21.437Z,97800.00
2023-05-15T08:26:56.850Z,97800.00
2023-05-15T08:29:30.959Z,97800.00
2023-05-15T08:32:06.383Z,97808.00
2023-05-15T08:34:40.527Z,97796.00
2023-05-15T08:37:14.624Z,97799.00
2023-05-15T08:39:48.777Z,97803.00
2023-05-15T08:42:29.884Z,97801.00
2023-05-15T08:45:04.922Z,97798.00
2023-05-15T08:47:42.139Z,97802.00
2023-05-15T08:50:18.046Z,97797.00
2023-05-15T08:52:53.375Z,97796.00
2023-05-15T08:55:27.718Z,97789.00
2023-05-15T08:58:03.822Z,97797.00
2023-05-15T09:00:38.004Z,97787.00
2023-05-15T09:03:18.681Z,97785.00
2023-05-15T09:05:53.904Z,97779.00
2023-05-15T09:08:31.044Z,97777.00
2023-05-15T09:11:07.929Z,97777.00
2023-05-15T09:13:43.472Z,97779.00
2023-05-15T09:16:17.665Z,97782.00
2023-05-15T09:18:53.799Z,97773.00
2023-05-15T09:21:29.713Z,97772.00
2023-05-15T09:24:28.276Z,97773.00
2023-05-15T09:27:04.119Z,97771.00
2023-05-15T09:29:41.463Z,97768.00
2023-05-15T09:32:16.680Z,97772.00
2023-05-15T09:34:50.930Z,97767.00
2023-05-15T09:37:32.892Z,97768.00
2023-05-15T09:40:11.949Z,97766.00
2023-05-15T09:42:53.190Z,97759.00
2023-05-15T09:45:30.250Z,97761.00
2023-05-15T09:48:07.285Z,97752.00
2023-05-15T09:50:42.488Z,97756.00
2023-05-15T09:53:21.399Z,97749.00
2023-05-15T09:55:56.199Z,97750.00
2023-05-15T09:58:30.268Z,97753.00
2023-05-15T10:01:12.624Z,97751.00
2023-05-15T10:03:58.127Z,97744.00
2023-05-15T10:06:36.940Z,97748.00
2023-05-15T10:09:12.872Z,97748.00
2023-05-15T10:11:53.980Z,97735.00
2023-05-15T10:14:31.617Z,97731.00
2023-05-15T10:17:07.591Z,97740.00
2023-05-15T10:19:56.735Z,97731.00
2023-05-15T10:22:33.899Z,97724.00
2023-05-15T10:25:14.733Z,97729.00
2023-05-15T10:27:51.464Z,97723.00
2023-05-15T10:30:26.889Z,97726.00
2023-05-15T10:33:03.584Z,97725.00
2023-05-15T10:35:39.406Z,97726.00
2023-05-15T10:38:14.745Z,97722.00
2023-05-15T10:40:49.460Z,97724.00
2023-05-15T10:43:24.304Z,97720.00
2023-05-15T10:45:59.048Z,97722.00
2023-05-15T10:48:34.968Z,97715.00
2023-05-15T10:51:17.025Z,97719.00
2023-05-15T10:53:52.530Z,97721.00
2023-05-15T10:56:31.050Z,97708.00
2023-05-15T10:59:08.765Z,97713.00
2023-05-15T11:01:43.352Z,97722.00
2023-05-15T11:04:20.266Z,97716.00
2023-05-15T11:07:14.009Z,97717.00
2023-05-15T11:09:48.357Z,97713.00
2023-05-15T11:12:23.165Z,97709.00
2023-05-15T11:15:20.045Z,97703.00
2023-05-15T11:18:05.571Z,97695.00
2023-05-15T11:20:43.176Z,97693.00
2023-05-15T11:23:17.421Z,97690.00
2023-05-15T11:25:57.372Z,97692.00
2023-05-15T11:28:31.740Z,97687.00
2023-05-15T11:31:08.217Z,97682.00
2023-05-15T11:33:42.489Z,97681.00
2023-05-15T11:36:18.513Z,97674.00
2023-05-15T11:38:53.768Z,97668.00
2023-05-15T11:41:33.342Z,97680.00
2023-05-15T11:44:07.564Z,97675.00
2023-05-15T11:46:44.083Z,97677.00
2023-05-15T11:49:20.681Z,97672.00
2023-05-15T11:51:56.260Z,97681.00
2023-05-15T11:54:31.562Z,97683.00
2023-05-15T11:57:08.996Z,97686.00
2023-05-15T11:59:43.182Z,97675.00
2023-05-15T12:02:18.178Z,97678.00
2023-05-15T12:04:52.408Z,97677.00
2023-05-15T12:07:28.278Z,97674.00
2023-05-15T12:10:03.384Z,97680.00
2023-05-15T12:12:37.738Z,97680.00
2023-05-15T12:15:13.191Z,97673.00
2023-05-15T12:17:47.511Z,97671.00
2023-05-15T12:20:21.807Z,97669.00
2023-05-15T12:22:58.716Z,97670.00
2023-05-15T12:25:34.430Z,97666.00
2023-05-15T12:28:08.836Z,97660.00
2023-05-15T12:30:44.245Z,97660.00
2023-05-15T12:33:18.995Z,97661.00
2023-05-15T12:36:01.178Z,97664.00
2023-05-15T12:38:37.737Z,97657.00
2023-05-15T12:41:13.049Z,97654.00
2023-05-15T12:43:47.246Z,97664.00
2023-05-15T12:46:24.926Z,97663.00
2023-05-15T12:49:00.271Z,97662.00
2023-05-15T12:51:34.465Z,97662.00
2023-05-15T12:54:18.988Z,97660.00
2023-05-15T12:56:53.459Z,97657.00
2023-05-15T12:59:28.225Z,97665.00
2023-05-15T13:02:02.780Z,97671.00
2023-05-15T13:04:36.991Z,97672.00
2023-05-15T13:07:12.450Z,97679.00
2023-05-15T13:10:03.377Z,97679.00
2023-05-15T13:12:38.678Z,97679.00
2023-05-15T13:15:26.856Z,97675.00
2023-05-15T13:18:01.791Z,97675.00
2023-05-15T13:20:37.716Z,97681.00
2023-05-15T13:23:15.067Z,97667.00
2023-05-15T13:25:50.720Z,97671.00
2023-05-15T13:28:24.820Z,97673.00
2023-05-15T13:30:59.039Z,97669.00
2023-05-15T13:33:34.089Z,97677.00
2023-05-15T13:36:08.999Z,97678.00
2023-05-15T13:38:43.177Z,97679.00
2023-05-15T13:41:18.730Z,97663.00
2023-05-15T13:43:52.814Z,97687.00
2023-05-15T13:46:27.141Z,97679.00
2023-05-15T13:49:01.268Z,97682.00
2023-05-15T13:51:35.401Z,97678.00
2023-05-15T13:54:09.798Z,97676.00
2023-05-15T13:56:45.317Z,97676.00
2023-05-15T13:59:19.444Z,97674.00
2023-05-15T14:01:53.768Z,97669.00
2023-05-15T14:04:28.115Z,97672.00
2023-05-15T14:07:02.377Z,97666.00
2023-05-15T14:09:36.681Z,97666.00
2023-05-15T14:12:12.332Z,97658.00
2023-05-15T14:14:47.819Z,97666.00
2023-05-15T14:17:23.244Z,97664.00
2023-05-15T14:19:57.420Z,97664.00
2023-05-15T14:22:31.583Z,97662.00
2023-05-15T14:25:07.217Z,97667.00
2023-05-15T14:27:42.700Z,97679.00
2023-05-15T14:30:16.908Z,97669.00
2023-05-15T14:32:51.070Z,97665.00
2023-05-15T14:35:25.417Z,97659.00
2023-05-15T14:37:59.550Z,97666.00
2023-05-15T14:40:34.086Z,97674.00
2023-05-15T14:43:09.569Z,97666.00
2023-05-15T14:45:43.731Z,97663.00
2023-05-15T14:48:17.998Z,97675.00
2023-05-15T14:50:52.506Z,97680.00
2023-05-15T14:53:26.674Z,97692.00
2023-05-15T14:56:00.882Z,97689.00
2023-05-15T14:58:36.330Z,97692.00
2023-05-15T15:01:10.538Z,97702.00
2023-05-15T15:03:44.895Z,97702.00
2023-05-15T15:06:19.591Z,97704.00
2023-05-15T15:08:53.718Z,97701.00
2023-05-15T15:11:27.787Z,97699.00
2023-05-15T15:14:03.908Z,97698.00
2023-05-15T15:16:38.165Z,97691.00
2023-05-15T15:19:12.427Z,97696.00
2023-05-15T15:21:46.542Z,97696.00
2023-05-15T15:24:20.669Z,97695.00
2023-05-15T15:26:54.772Z,97693.00
2023-05-15T15:29:30.273Z,97696.00
2023-05-15T15:32:04.958Z,97702.00
2023-05-15T15:34:39.206Z,97713.00
2023-05-15T15:37:13.277Z,97717.00
2023-05-15T15:39:47.589Z,97719.00
2023-05-15T15:42:22.607Z,97722.00
2023-05-15T15:44:58.971Z,97725.00
2023-05-15T15:47:33.155Z,97721.00
2023-05-15T15:50:08.516Z,97728.00
2023-05-15T15:52:42.649Z,97742.00
2023-05-15T15:55:16.816Z,97753.00
2023-05-15T15:57:51.049Z,97767.00
2023-05-15T16:00:26.661Z,97761.00
2023-05-15T16:03:01.072Z,97756.00
2023-05-15T16:05:35.258Z,97750.00
2023-05-15T16:08:09.399Z,97753.00
2023-05-15T16:10:44.590Z,97751.00
2023-05-15T16:13:18.655Z,97753.00
2023-05-15T16:15:54.122Z,97750.00
2023-05-15T16:18:28.303Z,97751.00
2023-05-15T16:21:02.722Z,97749.00
2023-05-15T16:23:37.481Z,97745.00
2023-05-15T16:26:11.974Z,97745.00
2023-05-15T16:28:46.165Z,97756.00
2023-05-15T16:31:21.703Z,97757.00
2023-05-15T16:33:55.826Z,97761.00
2023-05-15T16:36:29.966Z,97759.00
2023-05-15T16:39:05.135Z,97751.00
2023-05-15T16:41:39.214Z,97752.00
2023-05-15T16:44:13.326Z,97758.00
2023-05-15T16:46:48.950Z,97757.00
2023-05-15T16:49:23.071Z,97759.00
2023-05-15T16:51:57.220Z,97762.00
2023-05-15T16:54:32.539Z,97761.00
2023-05-15T16:57:07.066Z,97770.00
2023-05-15T16:59:41.261Z,97761.00
2023-05-15T17:02:16.765Z,97765.00
2023-05-15T17:04:51.136Z,97765.00
2023-05-15T17:07:25.393Z,97781.00
2023-05-15T17:09:59.489Z,97786.00
2023-05-15T17:12:33.585Z,97790.00
2023-05-15T17:15:09.150Z,97787.00
2023-05-15T17:17:44.697Z,97779.00
2023-05-15T17:20:18.913Z,97786.00
2023-05-15T17:22:53.041Z,97783.00
2023-05-15T17:25:27.532Z,97781.00
2023-05-15T17:28:01.799Z,97777.00
2023-05-15T17:30:36.357Z,97770.00
2023-05-15T17:33:12.214Z,97769.00
2023-05-15T17:35:47.042Z,97775.00
2023-05-15T17:38:21.162Z,97781.00
2023-05-15T17:40:55.522Z,97778.00
2023-05-15T17:43:29.619Z,97781.00
2023-05-15T17:46:05.654Z,97778.00
2023-05-15T17:48:41.168Z,97779.00
2023-05-15T17:51:15.303Z,97785.00
2023-05-15T17:53:49.713Z,97781.00
2023-05-15T17:56:24.029Z,97784.00
2023-05-15T17:58:58.151Z,97789.00
2023-05-15T18:01:32.416Z,97789.00
2023-05-15T18:04:08.438Z,97786.00
2023-05-15T18:06:42.594Z,97785.00
2023-05-15T18:09:16.771Z,97790.00
2023-05-15T18:11:51.066Z,97796.00
2023-05-15T18:14:25.284Z,97796.00
2023-05-15T18:16:59.437Z,97798.00
2023-05-15T18:19:35.274Z,97802.00
2023-05-15T18:22:09.353Z,97811.00
2023-05-15T18:24:43.531Z,97823.00
2023-05-15T18:27:17.775Z,97824.00
2023-05-15T18:29:52.027Z,97828.00
2023-05-15T18:32:26.209Z,97833.00
2023-05-15T18:35:02.689Z,97835.00
2023-05-15T18:37:36.848Z,97827.00
2023-05-15T18:40:12.286Z,97833.00
2023-05-15T18:42:46.581Z,97829.00
2023-05-15T18:45:22.382Z,97837.00
2023-05-15T18:47:56.637Z,97844.00
2023-05-15T18:50:32.165Z,97844.00
2023-05-15T18:53:06.607Z,97842.00
2023-05-15T18:55:40.700Z,97846.00
2023-05-15T18:58:14.862Z,97849.00
2023-05-15T19:00:49.102Z,97851.00
2023-05-15T19:03:23.303Z,97857.00
2023-05-15T19:05:59.490Z,97861.00
2023-05-15T19:08:33.796Z,97859.00
2023-05-15T19:11:08.789Z,97867.00
2023-05-15T19:13:42.905Z,97868.00
2023-05-15T19:16:17.125Z,97876.00
2023-05-15T19:18:51.247Z,97882.00
2023-05-15T19:21:26.921Z,97885.00
2023-05-15T19:24:01.108Z,97891.00
2023-05-15T19:26:35.307Z,97883.00
2023-05-15T19:29:09.467Z,97887.00
2023-05-15T19:31:44.018Z,97886.00
2023-05-15T19:34:18.760Z,97888.00
2023-05-15T19:36:54.424Z,97884.00
2023-05-15T19:39:28.588Z,97889.00
2023-05-15T19:42:02.754Z,97878.00
2023-05-15T19:44:36.828Z,97897.00
2023-05-15T19:47:10.936Z,97884.00
2023-05-15T19:49:45.650Z,97884.00
2023-05-15T19:52:22.158Z,97878.00
2023-05-15T19:54:56.373Z,97887.00
2023-05-15T19:57:30.543Z,97882.00
2023-05-15T20:00:05.828Z,97894.00
2023-05-15T20:02:41.296Z,97886.00
2023-05-15T20:05:16.315Z,97880.00
2023-05-15T20:07:52.963Z,97885.00
2023-05-15T20:10:27.244Z,97884.00
2023-05-15T20:13:01.594Z,97882.00
2023-05-15T20:15:35.931Z,97884.00
2023-05-15T20:18:10.212Z,97891.00
2023-05-15T20:20:44.805Z,97885.00
2023-05-15T20:23:20.485Z,97890.00
2023-05-15T20:25:55.743Z,97891.00
2023-05-15T20:28:29.955Z,97890.00
2023-05-15T20:31:04.338Z,97888.00
2023-05-15T20:33:38.595Z,97891.00
2023-05-15T20:36:12.754Z,97887.00
2023-05-15T20:38:50.621Z,97884.00
2023-05-15T20:41:24.719Z,97874.00
2023-05-15T20:43:58.795Z,97890.00
2023-05-15T20:46:33.111Z,97879.00
2023-05-15T20:49:07.490Z,97881.00
2023-05-15T20:51:44.475Z,97877.00
2023-05-15T20:54:19.981Z,97874.00
2023-05-15T20:56:54.087Z,97868.00
2023-05-15T20:59:28.248Z,97868.00
2023-05-15T21:02:02.427Z,97864.00
2023-05-15T21:04:36.829Z,97871.00
2023-05-15T21:07:11.140Z,97878.00
2023-05-15T21:09:46.618Z,97878.00
2023-05-15T21:12:20.794Z,97886.00
2023-05-15T21:14:55.001Z,97887.00
2023-05-15T21:17:29.327Z,97880.00
2023-05-15T21:20:04.920Z,97885.00
2023-05-15T21:22:39.504Z,97882.00
2023-05-15T21:25:15.861Z,97886.00
2023-05-15T21:27:49.967Z,97885.00
2023-05-15T21:30:24.255Z,97888.00
2023-05-15T21:32:58.582Z,97883.00
2023-05-15T21:35:32.734Z,97891.00
2023-05-15T21:38:06.893Z,97881.00
2023-05-15T21:40:42.857Z,97888.00
2023-05-15T21:43:17.026Z,97885.00
2023-05-15T21:45:51.373Z,97884.00
2023-05-15T21:48:25.876Z,97880.00
2023-05-15T21:50:59.988Z,97884.00
2023-05-15T21:53:34.203Z,97882.00
2023-05-15T21:56:09.917Z,97876.00
2023-05-15T21:58:44.239Z,97882.00
2023-05-15T22:01:18.504Z,97884.00
2023-05-15T22:03:53.040Z,97879.00
2023-05-15T22:06:27.227Z,97876.00
2023-05-15T22:09:01.463Z,97885.00
2023-05-15T22:11:37.080Z,97883.00
2023-05-15T22:14:11.224Z,97885.00
2023-05-15T22:16:45.420Z,97887.00
2023-05-15T22:19:32.133Z,97886.00
2023-05-15T22:22:07.131Z,97892.00
2023-05-15T22:24:41.424Z,97887.00
2023-05-15T22:27:17.423Z,97882.00
2023-05-15T22:29:51.567Z,97877.00
2023-05-15T22:32:26.387Z,97875.00
2023-05-15T22:35:00.702Z,97883.00
2023-05-15T22:37:34.944Z,97873.00
2023-05-15T22:40:11.484Z,97881.00
2023-05-15T22:42:50.129Z,97875.00
2023-05-15T22:45:24.369Z,97875.00
2023-05-15T22:47:58.600Z,97885.00
2023-05-15T22:50:32.784Z,97883.00
2023-05-15T22:53:06.893Z,97893.00
2023-05-15T22:55:41.117Z,97879.00
2023-05-15T22:58:16.747Z,97876.00
2023-05-15T23:00:50.913Z,97865.00
2023-05-15T23:03:25.274Z,97864.00
2023-05-15T23:05:59.403Z,97865.00
2023-05-15T23:08:33.530Z,97860.00
2023-05-15T23:11:07.642Z,97856.00
2023-05-15T23:13:43.069Z,97856.00
2023-05-15T23:16:17.272Z,97865.00
2023-05-15T23:18:52.361Z,97864.00
2023-05-15T23:21:26.899Z,97854.00
2023-05-15T23:24:00.998Z,97864.00
2023-05-15T23:26:35.168Z,97862.00
2023-05-15T23:29:10.588Z,97865.00
2023-05-15T23:31:44.900Z,97861.00
2023-05-15T23:34:19.166Z,97861.00
2023-05-15T23:36:53.242Z,97859.00
2023-05-15T23:39:27.389Z,97861.00
2023-05-15T23:42:01.501Z,97866.00
2023-05-15T23:44:37.021Z,97869.00
2023-05-15T23:47:11.477Z,97867.00
2023-05-15T23:49:45.656Z,97865.00
2023-05-15T23:52:19.768Z,97857.00
2023-05-15T23:54:53.827Z,97856.00
2023-05-15T23:57:27.966Z,97864.00
